createdAt,value
2019-03-11T00:01:09.568Z,66.70
2019-03-11T00:03:38.758Z,66.54
2019-03-11T00:06:07.931Z,66.28
2019-03-11T00:08:37.106Z,66.49
2019-03-11T00:11:06.357Z,66.40
2019-03-11T00:13:35.538Z,66.82
2019-03-11T00:16:04.778Z,66.28
2019-03-11T00:18:33.946Z,66.37
2019-03-11T00:21:03.149Z,66.13
2019-03-11T00:23:32.321Z,66.04
2019-03-11T00:26:01.496Z,65.65
2019-03-11T00:28:30.717Z,65.41
2019-03-11T00:30:59.969Z,65.91
2019-03-11T00:33:29.134Z,65.66
2019-03-11T00:35:58.305Z,65.57
2019-03-11T00:38:27.470Z,65.95
2019-03-11T00:40:56.669Z,65.78
2019-03-11T00:43:25.837Z,65.49
2019-03-11T00:45:55.009Z,65.04
2019-03-11T00:48:24.189Z,65.65
2019-03-11T00:50:53.362Z,65.31
2019-03-11T00:53:22.527Z,64.85
2019-03-11T00:55:51.722Z,64.40
2019-03-11T00:58:22.430Z,64.02
2019-03-11T01:00:51.606Z,64.55
2019-03-11T01:03:20.774Z,65.30
2019-03-11T01:05:49.946Z,65.22
2019-03-11T01:08:20.782Z,64.71
2019-03-11T01:10:49.976Z,65.13
2019-03-11T01:13:19.265Z,64.59
2019-03-11T01:15:48.452Z,64.34
2019-03-11T01:18:17.649Z,64.56
2019-03-11T01:20:46.858Z,64.86
2019-03-11T01:23:16.016Z,64.83
2019-03-11T01:25:45.292Z,65.05
2019-03-11T01:28:32.777Z,65.40
2019-03-11T01:31:19.653Z,65.64
2019-03-11T01:33:48.815Z,65.78
2019-03-11T01:36:17.993Z,65.89
2019-03-11T01:39:06.656Z,66.20
2019-03-11T01:41:35.819Z,65.99
2019-03-11T01:44:05.143Z,66.11
2019-03-11T01:46:34.320Z,66.40
2019-03-11T01:49:03.510Z,66.29
2019-03-11T01:51:32.699Z,66.21
2019-03-11T01:54:01.892Z,65.42
2019-03-11T01:56:31.091Z,65.63
2019-03-11T01:59:00.247Z,65.84
2019-03-11T02:01:29.419Z,65.97
2019-03-11T02:03:58.596Z,65.77
2019-03-11T02:06:27.775Z,65.57
2019-03-11T02:08:56.964Z,65.74
2019-03-11T02:11:26.109Z,65.22
2019-03-11T02:13:55.285Z,65.18
2019-03-11T02:16:24.477Z,65.00
2019-03-11T02:18:53.661Z,65.09
2019-03-11T02:21:22.841Z,64.54
2019-03-11T02:23:52.083Z,64.30
2019-03-11T02:26:21.255Z,64.60
2019-03-11T02:28:50.449Z,64.50
2019-03-11T02:31:19.643Z,64.64
2019-03-11T02:33:48.842Z,65.23
2019-03-11T02:36:18.039Z,65.56
2019-03-11T02:38:47.233Z,65.04
2019-03-11T02:41:16.443Z,65.08
2019-03-11T02:43:45.588Z,64.55
2019-03-11T02:46:14.762Z,62.95
2019-03-11T02:48:44.062Z,63.30
2019-03-11T02:51:13.234Z,63.22
2019-03-11T02:53:42.499Z,62.78
2019-03-11T02:56:11.698Z,61.83
2019-03-11T02:58:40.949Z,61.89
2019-03-11T03:01:17.514Z,62.34
2019-03-11T03:04:03.421Z,62.56
2019-03-11T03:06:32.604Z,62.99
2019-03-11T03:09:01.768Z,63.04
2019-03-11T03:11:30.929Z,63.37
2019-03-11T03:14:00.120Z,62.92
2019-03-11T03:16:29.292Z,63.27
2019-03-11T03:18:58.466Z,63.88
2019-03-11T03:21:27.631Z,64.09
2019-03-11T03:23:56.802Z,64.46
2019-03-11T03:26:25.991Z,64.80
2019-03-11T03:28:55.156Z,64.00
2019-03-11T03:31:24.332Z,64.44
2019-03-11T03:33:53.538Z,65.20
2019-03-11T03:36:22.686Z,66.21
2019-03-11T03:38:51.878Z,67.53
2019-03-11T03:41:21.054Z,67.98
2019-03-11T03:43:50.253Z,67.28
2019-03-11T03:46:19.763Z,67.57
2019-03-11T03:48:49.091Z,69.08
2019-03-11T03:51:18.427Z,69.87
2019-03-11T03:53:47.616Z,70.76
2019-03-11T03:56:16.806Z,71.22
2019-03-11T03:58:45.999Z,70.83
2019-03-11T04:01:15.215Z,70.31
2019-03-11T04:03:44.415Z,70.74
2019-03-11T04:06:13.609Z,70.26
2019-03-11T04:08:42.786Z,69.08
2019-03-11T04:11:11.968Z,68.73
2019-03-11T04:13:41.149Z,68.56
2019-03-11T04:16:10.421Z,69.20
2019-03-11T04:18:53.374Z,69.80
2019-03-11T04:21:22.718Z,70.00
2019-03-11T04:23:51.889Z,69.50
2019-03-11T04:26:21.126Z,69.53
2019-03-11T04:28:50.311Z,68.73
2019-03-11T04:31:19.482Z,68.58
2019-03-11T04:33:48.674Z,68.25
2019-03-11T04:36:17.871Z,66.78
2019-03-11T04:39:06.410Z,66.99
2019-03-11T04:41:35.612Z,67.31
2019-03-11T04:44:06.829Z,68.10
2019-03-11T04:46:35.682Z,68.30
2019-03-11T04:49:04.846Z,68.43
2019-03-11T04:51:34.016Z,67.74
2019-03-11T04:54:03.195Z,68.30
2019-03-11T04:56:32.363Z,68.20
2019-03-11T04:59:12.900Z,68.04
2019-03-11T05:01:42.917Z,68.92
2019-03-11T05:04:12.093Z,68.52
2019-03-11T05:06:41.373Z,70.74
2019-03-11T05:09:28.721Z,71.68
2019-03-11T05:11:57.930Z,72.12
2019-03-11T05:14:27.136Z,71.44
2019-03-11T05:16:56.325Z,71.18
2019-03-11T05:19:25.954Z,70.42
2019-03-11T05:21:55.136Z,70.23
2019-03-11T05:24:24.318Z,70.72
2019-03-11T05:26:53.519Z,71.25
2019-03-11T05:29:22.691Z,70.04
2019-03-11T05:31:51.871Z,69.68
2019-03-11T05:34:22.286Z,70.70
2019-03-11T05:36:51.456Z,72.22
2019-03-11T05:39:20.662Z,74.53
2019-03-11T05:41:49.827Z,75.80
2019-03-11T05:44:19.017Z,75.66
2019-03-11T05:46:48.211Z,75.24
2019-03-11T05:49:17.394Z,75.44
2019-03-11T05:51:46.611Z,76.12
2019-03-11T05:54:15.792Z,75.38
2019-03-11T05:56:44.968Z,74.52
2019-03-11T05:59:14.136Z,73.98
2019-03-11T06:01:43.324Z,73.57
2019-03-11T06:04:12.516Z,73.61
2019-03-11T06:06:41.702Z,73.16
2019-03-11T06:09:15.936Z,72.50
2019-03-11T06:11:45.110Z,71.98
2019-03-11T06:14:14.296Z,72.02
2019-03-11T06:16:43.476Z,70.64
2019-03-11T06:19:12.646Z,70.06
2019-03-11T06:21:45.900Z,69.48
2019-03-11T06:24:15.082Z,69.50
2019-03-11T06:26:44.256Z,69.31
2019-03-11T06:29:13.434Z,69.35
2019-03-11T06:31:42.604Z,69.44
2019-03-11T06:34:11.823Z,69.61
2019-03-11T06:36:40.981Z,69.92
2019-03-11T06:39:28.352Z,71.87
2019-03-11T06:42:15.346Z,74.73
2019-03-11T06:44:44.560Z,75.16
2019-03-11T06:47:13.762Z,75.17
2019-03-11T06:49:42.933Z,75.15
2019-03-11T06:52:12.139Z,74.83
2019-03-11T06:54:41.326Z,74.77
2019-03-11T06:57:12.686Z,74.52
2019-03-11T06:59:41.400Z,73.37
2019-03-11T07:02:10.580Z,72.93
2019-03-11T07:04:39.808Z,71.82
2019-03-11T07:07:08.909Z,71.19
2019-03-11T07:09:38.119Z,70.76
2019-03-11T07:12:25.245Z,71.34
2019-03-11T07:14:54.452Z,72.15
2019-03-11T07:17:23.642Z,72.22
2019-03-11T07:19:52.817Z,72.57
2019-03-11T07:22:21.984Z,72.43
2019-03-11T07:24:51.154Z,71.88
2019-03-11T07:27:20.355Z,70.83
2019-03-11T07:29:49.456Z,70.75
2019-03-11T07:32:18.620Z,71.12
2019-03-11T07:34:47.870Z,71.61
2019-03-11T07:37:17.165Z,72.32
2019-03-11T07:40:07.317Z,72.37
2019-03-11T07:42:36.537Z,71.91
2019-03-11T07:45:13.243Z,72.52
2019-03-11T07:47:42.416Z,72.54
2019-03-11T07:50:13.142Z,72.09
2019-03-11T07:52:42.316Z,71.18
2019-03-11T07:55:13.499Z,71.33
2019-03-11T07:57:42.740Z,71.86
2019-03-11T08:00:14.257Z,71.54
2019-03-11T08:02:43.516Z,71.05
2019-03-11T08:05:12.878Z,70.11
2019-03-11T08:07:42.058Z,69.55
2019-03-11T08:10:18.884Z,69.94
2019-03-11T08:12:48.076Z,68.68
2019-03-11T08:15:17.486Z,68.96
2019-03-11T08:17:46.652Z,68.76
2019-03-11T08:20:17.184Z,68.86
2019-03-11T08:22:46.359Z,69.59
2019-03-11T08:25:16.171Z,70.53
2019-03-11T08:27:45.486Z,70.65
2019-03-11T08:30:21.941Z,71.17
2019-03-11T08:32:51.311Z,69.99
2019-03-11T08:35:20.488Z,70.23
2019-03-11T08:37:49.691Z,69.33
2019-03-11T08:40:19.956Z,68.82
2019-03-11T08:42:49.194Z,69.11
2019-03-11T08:45:19.517Z,69.12
2019-03-11T08:47:48.762Z,69.54
2019-03-11T08:50:18.094Z,69.23
2019-03-11T08:52:47.415Z,69.38
2019-03-11T08:55:16.655Z,69.64
2019-03-11T08:57:45.876Z,69.17
2019-03-11T09:00:17.175Z,69.33
2019-03-11T09:02:46.380Z,69.59
2019-03-11T09:05:15.886Z,69.12
2019-03-11T09:07:45.059Z,69.03
2019-03-11T09:10:20.338Z,68.88
2019-03-11T09:12:49.507Z,68.95
2019-03-11T09:15:21.894Z,69.63
2019-03-11T09:17:51.073Z,68.73
2019-03-11T09:20:20.607Z,68.62
2019-03-11T09:22:49.816Z,68.13
2019-03-11T09:25:22.005Z,68.11
2019-03-11T09:27:51.395Z,67.35
2019-03-11T09:30:21.797Z,66.74
2019-03-11T09:32:51.088Z,66.26
2019-03-11T09:35:20.423Z,66.17
2019-03-11T09:37:49.605Z,66.40
2019-03-11T09:40:20.798Z,67.34
2019-03-11T09:43:08.060Z,67.67
2019-03-11T09:45:37.554Z,66.90
2019-03-11T09:48:06.798Z,67.13
2019-03-11T09:50:35.979Z,67.17
2019-03-11T09:53:05.183Z,67.21
2019-03-11T09:55:34.327Z,66.37
2019-03-11T09:58:03.577Z,66.27
2019-03-11T10:00:34.238Z,66.58
2019-03-11T10:03:03.408Z,66.22
2019-03-11T10:05:32.617Z,66.17
2019-03-11T10:08:01.853Z,66.99
2019-03-11T10:10:31.302Z,67.50
2019-03-11T10:13:00.489Z,67.56
2019-03-11T10:15:29.663Z,67.69
2019-03-11T10:18:16.856Z,68.09
2019-03-11T10:20:46.024Z,67.76
2019-03-11T10:23:15.201Z,67.57
2019-03-11T10:25:44.452Z,68.38
2019-03-11T10:28:13.650Z,68.06
2019-03-11T10:30:42.829Z,67.31
2019-03-11T10:33:12.008Z,67.44
2019-03-11T10:35:41.188Z,67.61
2019-03-11T10:38:10.367Z,69.27
2019-03-11T10:40:57.673Z,69.71
2019-03-11T10:43:26.851Z,69.41
2019-03-11T10:45:56.075Z,68.19
2019-03-11T10:48:36.323Z,68.17
2019-03-11T10:50:56.359Z,68.26
2019-03-11T10:53:25.802Z,68.34
2019-03-11T10:55:54.971Z,67.95
2019-03-11T10:58:24.209Z,68.43
2019-03-11T11:00:53.581Z,69.46
2019-03-11T11:03:22.750Z,69.22
2019-03-11T11:05:51.947Z,68.99
2019-03-11T11:08:21.119Z,69.41
2019-03-11T11:10:50.300Z,69.75
2019-03-11T11:13:19.521Z,69.04
2019-03-11T11:15:48.787Z,68.87
2019-03-11T11:18:17.983Z,68.43
2019-03-11T11:20:47.156Z,68.74
2019-03-11T11:23:16.338Z,68.91
2019-03-11T11:25:45.523Z,69.25
2019-03-11T11:28:14.700Z,69.79
2019-03-11T11:30:43.889Z,69.66
2019-03-11T11:33:13.158Z,68.54
2019-03-11T11:35:42.334Z,68.20
2019-03-11T11:38:11.515Z,67.76
2019-03-11T11:40:40.776Z,66.54
2019-03-11T11:43:09.972Z,64.75
2019-03-11T11:45:39.172Z,64.66
2019-03-11T11:48:08.567Z,65.47
2019-03-11T11:50:37.797Z,65.74
2019-03-11T11:53:06.979Z,66.42
2019-03-11T11:55:36.175Z,65.69
2019-03-11T11:58:05.420Z,64.45
2019-03-11T12:00:52.707Z,64.69
2019-03-11T12:03:21.963Z,64.51
2019-03-11T12:05:51.142Z,64.60
2019-03-11T12:08:20.341Z,64.86
2019-03-11T12:10:49.541Z,64.43
2019-03-11T12:13:18.709Z,65.04
2019-03-11T12:15:47.914Z,65.81
2019-03-11T12:18:17.080Z,64.92
2019-03-11T12:20:46.635Z,64.82
2019-03-11T12:23:15.830Z,64.22
2019-03-11T12:25:45.014Z,64.97
2019-03-11T12:28:14.188Z,65.37
2019-03-11T12:30:43.408Z,65.93
2019-03-11T12:33:12.601Z,65.69
2019-03-11T12:35:41.776Z,65.37
2019-03-11T12:38:10.951Z,64.52
2019-03-11T12:40:40.124Z,65.18
2019-03-11T12:43:09.301Z,64.56
2019-03-11T12:45:38.525Z,64.91
2019-03-11T12:48:07.730Z,64.63
2019-03-11T12:50:36.885Z,63.46
2019-03-11T12:53:06.071Z,63.27
2019-03-11T12:55:35.236Z,62.88
2019-03-11T12:58:04.426Z,63.50
2019-03-11T13:00:33.635Z,63.47
2019-03-11T13:03:02.856Z,63.96
2019-03-11T13:05:32.036Z,63.58
2019-03-11T13:08:01.213Z,63.71
2019-03-11T13:10:33.643Z,63.98
2019-03-11T13:13:02.948Z,63.98
2019-03-11T13:15:32.132Z,64.02
2019-03-11T13:18:24.069Z,64.89
2019-03-11T13:20:53.945Z,64.52
2019-03-11T13:23:23.356Z,65.15
2019-03-11T13:25:52.611Z,64.37
2019-03-11T13:28:39.961Z,64.57
2019-03-11T13:31:09.135Z,64.62
2019-03-11T13:33:38.310Z,65.74
2019-03-11T13:36:08.410Z,66.79
2019-03-11T13:38:38.090Z,68.18
2019-03-11T13:41:07.258Z,68.56
2019-03-11T13:43:36.490Z,68.42
2019-03-11T13:46:05.694Z,67.83
2019-03-11T13:48:34.896Z,66.59
2019-03-11T13:51:04.376Z,66.18
2019-03-11T13:53:33.543Z,65.93
2019-03-11T13:56:02.720Z,65.66
2019-03-11T13:58:33.220Z,65.67
2019-03-11T14:01:02.557Z,66.39
2019-03-11T14:03:31.754Z,66.39
2019-03-11T14:06:00.918Z,67.49
2019-03-11T14:08:30.096Z,67.93
2019-03-11T14:10:59.206Z,67.85
2019-03-11T14:13:28.395Z,66.70
2019-03-11T14:15:57.600Z,67.36
2019-03-11T14:18:44.683Z,66.46
2019-03-11T14:21:21.870Z,66.67
2019-03-11T14:23:44.770Z,66.21
2019-03-11T14:26:31.880Z,66.15
2019-03-11T14:29:19.006Z,66.15
2019-03-11T14:32:06.537Z,66.05
2019-03-11T14:34:35.759Z,65.77
2019-03-11T14:37:04.942Z,65.42
2019-03-11T14:39:34.120Z,65.10
2019-03-11T14:42:03.299Z,65.23
2019-03-11T14:44:32.472Z,64.50
2019-03-11T14:47:01.657Z,64.78
2019-03-11T14:49:30.853Z,63.53
2019-03-11T14:52:00.044Z,62.66
2019-03-11T14:54:29.239Z,62.75
2019-03-11T14:56:58.408Z,62.77
2019-03-11T14:59:27.580Z,63.46
2019-03-11T15:01:56.779Z,63.74
2019-03-11T15:04:25.963Z,64.08
2019-03-11T15:06:55.152Z,63.07
2019-03-11T15:09:24.316Z,62.51
2019-03-11T15:11:53.495Z,62.81
2019-03-11T15:14:22.696Z,62.79
2019-03-11T15:16:51.861Z,62.53
2019-03-11T15:19:21.631Z,62.98
2019-03-11T15:21:51.067Z,63.21
2019-03-11T15:24:20.345Z,63.51
2019-03-11T15:26:49.535Z,63.37
2019-03-11T15:29:18.741Z,62.75
2019-03-11T15:31:47.883Z,62.93
2019-03-11T15:34:17.075Z,62.16
2019-03-11T15:36:46.248Z,62.28
2019-03-11T15:39:15.430Z,62.54
2019-03-11T15:41:44.601Z,62.09
2019-03-11T15:44:13.780Z,61.11
2019-03-11T15:46:42.982Z,61.81
2019-03-11T15:49:12.157Z,61.76
2019-03-11T15:51:41.398Z,61.04
2019-03-11T15:54:10.587Z,61.28
2019-03-11T15:56:39.774Z,61.48
2019-03-11T15:59:09.038Z,62.05
2019-03-11T16:01:38.210Z,62.68
2019-03-11T16:04:25.398Z,64.03
2019-03-11T16:07:12.851Z,64.60
2019-03-11T16:09:42.120Z,63.95
2019-03-11T16:12:11.299Z,63.63
2019-03-11T16:14:48.922Z,63.58
2019-03-11T16:17:11.467Z,64.46
2019-03-11T16:19:40.653Z,64.20
2019-03-11T16:22:09.765Z,64.52
2019-03-11T16:24:38.944Z,64.48
2019-03-11T16:27:08.190Z,63.71
2019-03-11T16:29:37.381Z,64.00
2019-03-11T16:32:06.556Z,63.94
2019-03-11T16:34:35.779Z,63.80
2019-03-11T16:37:04.953Z,64.03
2019-03-11T16:39:34.173Z,64.17
2019-03-11T16:42:03.370Z,64.23
2019-03-11T16:44:32.564Z,63.44
2019-03-11T16:47:01.762Z,63.58
2019-03-11T16:49:30.943Z,64.00
2019-03-11T16:52:00.115Z,64.00
2019-03-11T16:54:29.295Z,64.16
2019-03-11T16:56:58.462Z,63.84
2019-03-11T16:59:27.631Z,63.87
2019-03-11T17:01:56.817Z,63.81
2019-03-11T17:04:43.971Z,63.93
2019-03-11T17:07:31.198Z,63.61
2019-03-11T17:10:00.376Z,63.59
2019-03-11T17:12:29.573Z,63.75
2019-03-11T17:14:58.934Z,63.65
2019-03-11T17:17:28.127Z,63.51
2019-03-11T17:19:57.573Z,63.94
2019-03-11T17:22:26.740Z,64.07
2019-03-11T17:24:55.929Z,63.28
2019-03-11T17:27:25.102Z,62.95
2019-03-11T17:29:54.271Z,62.93
2019-03-11T17:32:23.508Z,62.90
2019-03-11T17:34:52.680Z,62.61
2019-03-11T17:37:21.880Z,62.48
2019-03-11T17:39:51.043Z,62.69
2019-03-11T17:42:20.383Z,62.26
2019-03-11T17:44:49.606Z,61.76
2019-03-11T17:47:18.783Z,61.61
2019-03-11T17:49:47.967Z,61.23
2019-03-11T17:52:17.214Z,61.29
2019-03-11T17:54:46.410Z,61.37
2019-03-11T17:57:15.581Z,61.17
2019-03-11T17:59:44.754Z,61.46
2019-03-11T18:02:14.066Z,61.85
2019-03-11T18:04:43.311Z,62.23
2019-03-11T18:07:12.465Z,62.66
2019-03-11T18:09:41.723Z,63.08
2019-03-11T18:12:10.882Z,62.97
2019-03-11T18:14:40.110Z,63.43
2019-03-11T18:17:09.283Z,63.32
2019-03-11T18:19:38.459Z,63.43
2019-03-11T18:22:07.620Z,63.61
2019-03-11T18:24:36.792Z,63.97
2019-03-11T18:27:05.968Z,64.33
2019-03-11T18:29:35.226Z,64.76
2019-03-11T18:32:04.456Z,64.84
2019-03-11T18:34:33.632Z,64.98
2019-03-11T18:37:02.807Z,64.96
2019-03-11T18:39:32.015Z,64.70
2019-03-11T18:42:25.481Z,64.65
2019-03-11T18:44:50.199Z,64.90
2019-03-11T18:47:19.395Z,64.74
2019-03-11T18:49:48.622Z,65.11
2019-03-11T18:52:17.776Z,65.30
2019-03-11T18:54:47.029Z,65.50
2019-03-11T18:57:16.344Z,65.09
2019-03-11T18:59:45.539Z,65.02
2019-03-11T19:02:14.735Z,64.96
2019-03-11T19:04:43.919Z,65.12
2019-03-11T19:07:13.101Z,65.06
2019-03-11T19:09:42.335Z,65.01
2019-03-11T19:12:11.676Z,65.16
2019-03-11T19:14:40.820Z,65.53
2019-03-11T19:17:10.068Z,65.65
2019-03-11T19:19:46.057Z,65.73
2019-03-11T19:22:10.198Z,65.57
2019-03-11T19:24:39.362Z,65.28
2019-03-11T19:27:08.528Z,65.19
2019-03-11T19:29:37.719Z,65.30
2019-03-11T19:32:06.968Z,65.21
2019-03-11T19:34:36.134Z,65.02
2019-03-11T19:37:05.382Z,64.66
2019-03-11T19:39:34.675Z,64.70
2019-03-11T19:42:03.871Z,64.43
2019-03-11T19:44:33.089Z,64.73
2019-03-11T19:47:02.292Z,64.64
2019-03-11T19:49:31.455Z,64.97
2019-03-11T19:52:00.606Z,64.87
2019-03-11T19:54:29.880Z,64.71
2019-03-11T19:56:59.087Z,64.60
2019-03-11T19:59:28.320Z,64.37
2019-03-11T20:01:57.657Z,64.63
2019-03-11T20:04:26.884Z,64.61
2019-03-11T20:06:56.064Z,64.48
2019-03-11T20:09:25.332Z,64.57
2019-03-11T20:11:54.552Z,64.48
2019-03-11T20:14:23.788Z,64.65
2019-03-11T20:16:52.922Z,64.63
2019-03-11T20:19:22.279Z,64.91
2019-03-11T20:21:51.605Z,64.92
2019-03-11T20:24:20.852Z,65.28
2019-03-11T20:26:50.004Z,65.11
2019-03-11T20:29:37.369Z,64.82
2019-03-11T20:32:08.091Z,64.93
2019-03-11T20:34:37.321Z,65.16
2019-03-11T20:37:06.606Z,65.52
2019-03-11T20:39:35.849Z,65.59
2019-03-11T20:42:05.177Z,65.90
2019-03-11T20:44:34.392Z,65.88
2019-03-11T20:47:03.567Z,65.63
2019-03-11T20:49:32.721Z,65.61
2019-03-11T20:52:01.946Z,65.38
2019-03-11T20:54:31.148Z,65.37
2019-03-11T20:57:01.218Z,65.36
2019-03-11T20:59:30.791Z,65.43
2019-03-11T21:02:00.093Z,65.42
2019-03-11T21:04:48.006Z,65.35
2019-03-11T21:07:17.217Z,65.29
2019-03-11T21:09:46.393Z,65.55
2019-03-11T21:12:15.571Z,65.62
2019-03-11T21:14:44.755Z,65.58
2019-03-11T21:17:25.293Z,65.71
2019-03-11T21:19:44.929Z,66.29
2019-03-11T21:22:14.148Z,67.00
2019-03-11T21:24:43.462Z,66.77
2019-03-11T21:27:12.947Z,66.78
2019-03-11T21:29:42.169Z,66.79
2019-03-11T21:32:11.558Z,66.98
2019-03-11T21:34:40.912Z,67.64
2019-03-11T21:37:10.242Z,68.27
2019-03-11T21:39:57.781Z,68.89
2019-03-11T21:42:45.015Z,69.22
2019-03-11T21:45:15.483Z,69.01
2019-03-11T21:47:44.996Z,69.11
2019-03-11T21:50:20.359Z,68.85
2019-03-11T21:52:49.637Z,68.71
2019-03-11T21:55:19.051Z,68.48
2019-03-11T21:57:48.435Z,68.23
2019-03-11T22:00:33.688Z,67.98
2019-03-11T22:02:55.038Z,67.55
2019-03-11T22:05:24.219Z,67.45
2019-03-11T22:07:53.437Z,67.98
2019-03-11T22:10:22.593Z,69.48
2019-03-11T22:12:52.049Z,70.14
2019-03-11T22:15:22.914Z,70.60
2019-03-11T22:17:52.032Z,70.94
2019-03-11T22:20:21.286Z,71.44
2019-03-11T22:22:50.551Z,72.18
2019-03-11T22:25:21.722Z,72.98
2019-03-11T22:27:50.907Z,73.34
2019-03-11T22:30:24.246Z,73.81
2019-03-11T22:32:53.480Z,74.25
2019-03-11T22:35:22.653Z,74.79
2019-03-11T22:37:51.933Z,75.33
2019-03-11T22:40:21.283Z,76.10
2019-03-11T22:42:50.454Z,76.53
2019-03-11T22:45:22.621Z,76.88
2019-03-11T22:47:52.470Z,77.31
2019-03-11T22:50:22.005Z,77.67
2019-03-11T22:52:51.446Z,78.23
2019-03-11T22:55:20.868Z,78.93
2019-03-11T22:57:50.037Z,79.55
2019-03-11T23:00:36.033Z,80.38
2019-03-11T23:03:06.929Z,81.06
2019-03-11T23:05:36.299Z,81.60
2019-03-11T23:08:05.739Z,81.86
2019-03-11T23:10:34.919Z,81.95
2019-03-11T23:13:04.260Z,82.08
2019-03-11T23:15:51.405Z,82.21
2019-03-11T23:18:38.925Z,82.27
2019-03-11T23:21:08.134Z,82.16
2019-03-11T23:23:37.303Z,81.88
2019-03-11T23:26:06.504Z,81.82
2019-03-11T23:28:35.666Z,81.78
2019-03-11T23:31:04.854Z,81.70
2019-03-11T23:33:34.058Z,81.51
2019-03-11T23:36:03.246Z,81.52
2019-03-11T23:38:32.438Z,81.85
2019-03-11T23:41:01.608Z,81.96
2019-03-11T23:43:30.780Z,81.79
2019-03-11T23:46:00.008Z,81.71
2019-03-11T23:48:29.188Z,81.85
2019-03-11T23:50:58.385Z,82.15
2019-03-11T23:53:27.637Z,82.77
2019-03-11T23:55:56.940Z,82.98
2019-03-11T23:58:26.190Z,82.94
